Edward F Knapp State Airport Barre, Montpelier US
ICAO: KMPV
IATA: MPV
Category: Medium
Scheduled Services: No

Elevation: 1166 ft
TransAlt. 18000 ft.

Airport Communications:
ASOS:132.675
BOSTON CNTR:135.7
BURLINGTON RDO:122.6
CTAF/UNICOM:122.8

KMPV Zoom In..

If you have problems with the map follow the link
https://www.worldairports.se/pages/airport.php?
ICAO=KMPV

Runways:

(A) RW 05 length 4022 ft width 100 ft
---- / hdg 48

(B) RW 17 length 5002 ft width 100 ft
ILS 108.70 / hdg 168

(C) RW 23 length 4022 ft width 100 ft
---- / hdg 228

(D) RW 35 length 5002 ft width 100 ft
---- / hdg 348

Location; KMPV
Day. 14 / Time. 11.13 Zulu
* Altimeter: 30.16
* Temperature: -09° c. -15.8°f.
* Wind from: 300° Speed 12 kn.
Dewpoint: -12° c.
Visibility: 2 m.
Clouds: Scattered 2100 ft.
Clouds: Overcast 2900 ft.
Conditions: Light Snow.Conditions: Mist.

KMPV 141113Z AUTO 30012KT 2 1/2SM -SN BR SCT021 OVC029 M09/M12 A3016 RMK AO2 P0000 T10941117 $


Wind From 300°
Speed 12 kn.

 
 
jpsmedia.com for Web Design worldairports.se 2018   terms of use